createdAt,value
2018-12-18T00:00:42.201Z,50.24
2018-12-18T00:03:13.513Z,50.55
2018-12-18T00:05:44.912Z,50.01
2018-12-18T00:08:15.099Z,50.30
2018-12-18T00:10:49.688Z,49.73
2018-12-18T00:13:29.114Z,50.11
2018-12-18T00:15:58.572Z,51.12
2018-12-18T00:18:27.754Z,50.06
2018-12-18T00:20:57.582Z,49.76
2018-12-18T00:23:26.935Z,50.15
2018-12-18T00:25:56.370Z,50.04
2018-12-18T00:28:25.561Z,50.16
2018-12-18T00:30:56.414Z,49.99
2018-12-18T00:33:26.110Z,49.87
2018-12-18T00:35:55.368Z,49.83
2018-12-18T00:38:24.547Z,49.86
2018-12-18T00:40:54.265Z,49.49
2018-12-18T00:43:23.411Z,49.73
2018-12-18T00:45:53.904Z,49.41
2018-12-18T00:48:23.154Z,49.93
2018-12-18T00:50:52.452Z,50.42
2018-12-18T00:53:22.892Z,50.58
2018-12-18T00:55:52.063Z,50.01
2018-12-18T00:58:21.777Z,49.76
2018-12-18T01:00:51.066Z,49.98
2018-12-18T01:03:20.610Z,49.83
2018-12-18T01:05:50.995Z,50.14
2018-12-18T01:08:20.362Z,49.95
2018-12-18T01:10:50.005Z,50.26
2018-12-18T01:13:19.162Z,50.09
2018-12-18T01:15:49.895Z,49.91
2018-12-18T01:18:19.174Z,49.85
2018-12-18T01:20:48.377Z,49.70
2018-12-18T01:23:18.066Z,50.06
2018-12-18T01:25:47.382Z,49.87
2018-12-18T01:28:16.763Z,50.32
2018-12-18T01:30:46.067Z,51.28
2018-12-18T01:33:16.010Z,51.25
2018-12-18T01:35:46.560Z,50.65
2018-12-18T01:38:15.908Z,51.00
2018-12-18T01:40:45.103Z,50.41
2018-12-18T01:43:15.306Z,50.12
2018-12-18T01:45:44.603Z,50.34
2018-12-18T01:48:14.791Z,50.71
2018-12-18T01:50:44.154Z,50.95
2018-12-18T01:53:13.359Z,50.95
2018-12-18T01:57:11.787Z,51.41
2018-12-18T01:59:42.130Z,53.42
2018-12-18T02:02:11.319Z,51.98
2018-12-18T02:04:40.471Z,51.78
2018-12-18T02:07:09.999Z,51.71
2018-12-18T02:09:40.003Z,51.32
2018-12-18T02:12:10.080Z,50.89
2018-12-18T02:14:39.692Z,51.11
2018-12-18T02:17:10.394Z,51.30
2018-12-18T02:19:39.656Z,51.70
2018-12-18T02:22:09.508Z,52.82
2018-12-18T02:24:39.236Z,51.29
2018-12-18T02:27:08.386Z,51.00
2018-12-18T02:29:37.746Z,51.05
2018-12-18T02:32:07.047Z,50.86
2018-12-18T02:34:37.376Z,50.42
2018-12-18T02:37:07.155Z,50.59
2018-12-18T02:39:37.420Z,50.26
2018-12-18T02:42:06.581Z,50.58
2018-12-18T02:44:35.778Z,50.92
2018-12-18T02:47:04.959Z,51.36
2018-12-18T02:49:34.701Z,51.39
2018-12-18T02:52:03.983Z,51.00
2018-12-18T02:54:33.168Z,51.11
2018-12-18T02:57:02.376Z,50.87
2018-12-18T02:59:32.262Z,50.63
2018-12-18T03:02:01.955Z,50.91
2018-12-18T03:04:32.217Z,50.53
2018-12-18T03:07:01.475Z,50.55
2018-12-18T03:09:31.046Z,50.69
2018-12-18T03:12:00.561Z,50.36
2018-12-18T03:14:30.566Z,50.67
2018-12-18T03:16:59.727Z,50.28
2018-12-18T03:19:30.236Z,50.49
2018-12-18T03:22:00.423Z,50.57
2018-12-18T03:24:29.682Z,50.28
2018-12-18T03:26:59.313Z,50.54
2018-12-18T03:29:28.795Z,50.54
2018-12-18T03:32:01.711Z,50.36
2018-12-18T03:34:30.961Z,50.64
2018-12-18T03:37:00.652Z,50.51
2018-12-18T03:39:29.981Z,49.99
2018-12-18T03:41:59.260Z,50.04
2018-12-18T03:44:29.547Z,50.04
2018-12-18T03:46:58.884Z,50.31
2018-12-18T03:49:28.728Z,50.49
2018-12-18T03:51:58.212Z,50.68
2018-12-18T03:54:27.536Z,50.33
2018-12-18T03:56:58.168Z,50.87
2018-12-18T03:59:27.467Z,50.83
2018-12-18T04:01:57.148Z,51.04
2018-12-18T04:04:26.422Z,51.37
2018-12-18T04:06:56.587Z,51.27
2018-12-18T04:09:25.823Z,51.09
2018-12-18T04:12:01.535Z,52.75
2018-12-18T04:14:31.148Z,53.11
2018-12-18T04:17:00.633Z,52.35
2018-12-18T04:19:31.117Z,52.44
2018-12-18T04:22:00.280Z,52.09
2018-12-18T04:24:29.473Z,51.93
2018-12-18T04:26:59.326Z,52.49
2018-12-18T04:29:28.509Z,53.11
2018-12-18T04:31:57.667Z,52.17
2018-12-18T04:34:27.847Z,53.30
2018-12-18T04:36:57.026Z,54.53
2018-12-18T04:39:26.826Z,53.56
2018-12-18T04:41:56.112Z,54.59
2018-12-18T04:44:25.348Z,54.11
2018-12-18T04:46:55.410Z,56.43
2018-12-18T04:49:24.651Z,55.67
2018-12-18T04:51:54.346Z,55.65
2018-12-18T04:54:23.528Z,55.31
2018-12-18T04:56:52.718Z,56.31
2018-12-18T04:59:21.892Z,56.14
2018-12-18T05:01:51.148Z,56.02
2018-12-18T05:04:20.956Z,57.67
2018-12-18T05:06:50.262Z,57.51
2018-12-18T05:09:19.389Z,56.69
2018-12-18T05:11:49.118Z,56.58
2018-12-18T05:14:18.259Z,55.65
2018-12-18T05:16:48.095Z,54.93
2018-12-18T05:19:17.319Z,54.87
2018-12-18T05:21:47.090Z,55.13
2018-12-18T05:24:16.715Z,56.24
2018-12-18T05:26:46.593Z,55.83
2018-12-18T05:29:16.328Z,55.37
2018-12-18T05:31:45.482Z,56.37
2018-12-18T05:34:16.200Z,56.64
2018-12-18T05:36:45.341Z,58.45
2018-12-18T05:39:14.512Z,56.65
2018-12-18T05:41:44.367Z,56.61
2018-12-18T05:44:15.535Z,57.53
2018-12-18T05:46:44.705Z,57.32
2018-12-18T05:49:13.915Z,57.63
2018-12-18T05:51:43.071Z,58.01
2018-12-18T05:54:12.758Z,57.55
2018-12-18T05:56:41.960Z,56.47
2018-12-18T05:59:11.150Z,57.17
2018-12-18T06:01:40.339Z,56.52
2018-12-18T06:04:09.580Z,55.78
2018-12-18T06:06:39.280Z,56.07
2018-12-18T06:09:08.635Z,56.99
2018-12-18T06:11:37.924Z,56.94
2018-12-18T06:14:07.078Z,55.76
2018-12-18T06:16:36.237Z,55.27
2018-12-18T06:19:05.989Z,56.59
2018-12-18T06:21:35.819Z,57.20
2018-12-18T06:24:06.026Z,55.72
2018-12-18T06:26:35.271Z,55.41
2018-12-18T06:29:04.486Z,55.34
2018-12-18T06:31:34.035Z,55.07
2018-12-18T06:34:03.199Z,55.21
2018-12-18T06:36:32.457Z,56.27
2018-12-18T06:39:01.998Z,55.84
2018-12-18T06:41:33.799Z,55.73
2018-12-18T06:44:03.594Z,56.20
2018-12-18T06:46:33.364Z,56.26
2018-12-18T06:49:02.856Z,57.78
2018-12-18T06:51:32.111Z,57.35
2018-12-18T06:54:01.276Z,56.10
2018-12-18T06:56:31.092Z,56.21
2018-12-18T06:59:00.289Z,56.20
2018-12-18T07:01:29.431Z,57.39
2018-12-18T07:03:58.652Z,57.13
2018-12-18T07:06:27.814Z,59.06
2018-12-18T07:08:57.606Z,58.78
2018-12-18T07:11:26.918Z,58.64
2018-12-18T07:13:56.106Z,57.32
2018-12-18T07:16:25.276Z,57.95
2018-12-18T07:18:55.070Z,57.14
2018-12-18T07:21:24.747Z,56.91
2018-12-18T07:23:53.928Z,55.98
2018-12-18T07:26:25.072Z,56.33
2018-12-18T07:28:54.307Z,56.20
2018-12-18T07:31:23.497Z,56.01
2018-12-18T07:33:53.134Z,55.83
2018-12-18T07:36:22.297Z,55.42
2018-12-18T07:38:51.611Z,58.73
2018-12-18T07:41:20.960Z,57.99
2018-12-18T07:43:50.807Z,58.01
2018-12-18T07:46:20.738Z,57.84
2018-12-18T07:48:50.331Z,57.46
2018-12-18T07:51:19.648Z,57.71
2018-12-18T07:53:48.823Z,58.62
2018-12-18T07:56:19.008Z,59.29
2018-12-18T07:58:48.818Z,59.72
2018-12-18T08:01:18.089Z,60.78
2018-12-18T08:03:47.278Z,60.42
2018-12-18T08:06:16.494Z,57.94
2018-12-18T08:08:45.693Z,59.17
2018-12-18T08:11:15.711Z,58.54
2018-12-18T08:13:45.307Z,59.10
2018-12-18T08:16:14.460Z,58.07
2018-12-18T08:18:46.099Z,57.86
2018-12-18T08:21:15.710Z,57.21
2018-12-18T08:23:45.545Z,58.36
2018-12-18T08:26:14.766Z,57.71
2018-12-18T08:28:45.316Z,57.28
2018-12-18T08:31:14.555Z,56.48
2018-12-18T08:33:43.819Z,56.68
2018-12-18T08:36:13.541Z,57.07
2018-12-18T08:38:42.749Z,56.75
2018-12-18T08:41:11.991Z,56.36
2018-12-18T08:43:41.232Z,56.10
2018-12-18T08:46:10.599Z,56.99
2018-12-18T08:48:41.295Z,55.97
2018-12-18T08:51:10.427Z,55.90
2018-12-18T08:53:39.586Z,55.43
2018-12-18T08:56:09.543Z,54.97
2018-12-18T08:58:38.708Z,54.74
2018-12-18T09:01:08.430Z,54.25
2018-12-18T09:03:37.881Z,53.10
2018-12-18T09:06:07.034Z,51.14
2018-12-18T09:08:36.200Z,50.85
2018-12-18T09:11:07.097Z,48.13
2018-12-18T09:13:36.763Z,45.39
2018-12-18T09:16:10.314Z,45.52
2018-12-18T09:18:40.591Z,46.95
2018-12-18T09:21:09.886Z,46.77
2018-12-18T09:23:39.543Z,45.85
2018-12-18T09:26:09.539Z,46.21
2018-12-18T09:28:39.034Z,47.79
2018-12-18T09:31:11.676Z,47.20
2018-12-18T09:33:44.664Z,48.76
2018-12-18T09:36:13.862Z,48.70
2018-12-18T09:38:48.424Z,49.52
2018-12-18T09:41:23.106Z,50.04
2018-12-18T09:43:56.018Z,49.98
2018-12-18T09:46:25.831Z,51.10
2018-12-18T09:48:56.695Z,53.72
2018-12-18T09:51:26.544Z,52.06
2018-12-18T09:53:56.435Z,53.30
2018-12-18T09:56:26.355Z,53.48
2018-12-18T09:58:55.660Z,53.47
2018-12-18T10:01:24.855Z,55.48
2018-12-18T10:03:55.038Z,54.52
2018-12-18T10:06:25.219Z,53.39
2018-12-18T10:08:55.483Z,54.84
2018-12-18T10:11:28.969Z,52.57
2018-12-18T10:14:07.667Z,50.92
2018-12-18T10:16:51.033Z,49.37
2018-12-18T10:19:21.711Z,47.01
2018-12-18T10:21:52.367Z,48.39
2018-12-18T10:24:22.040Z,48.90
2018-12-18T10:26:51.793Z,49.69
2018-12-18T10:29:31.868Z,49.65
2018-12-18T10:32:14.832Z,49.66
2018-12-18T10:37:28.096Z,47.75
2018-12-18T10:39:57.397Z,48.66
2018-12-18T10:42:26.609Z,46.45
2018-12-18T10:44:55.764Z,45.64
2018-12-18T10:47:25.065Z,46.10
2018-12-18T10:49:54.727Z,45.33
2018-12-18T10:52:23.910Z,46.28
2018-12-18T10:54:53.355Z,46.80
2018-12-18T10:57:22.567Z,46.76
2018-12-18T10:59:51.832Z,46.12
2018-12-18T11:02:22.061Z,46.27
2018-12-18T11:04:51.255Z,45.66
2018-12-18T11:07:20.416Z,47.01
2018-12-18T11:09:50.169Z,47.24
2018-12-18T11:12:24.636Z,47.51
2018-12-18T11:14:54.432Z,48.54
2018-12-18T11:17:23.625Z,49.56
2018-12-18T11:19:52.893Z,51.48
2018-12-18T11:22:22.128Z,51.37
2018-12-18T11:24:51.333Z,51.26
2018-12-18T11:27:21.080Z,51.98
2018-12-18T11:29:50.360Z,52.36
2018-12-18T11:32:20.303Z,53.09
2018-12-18T11:34:49.535Z,52.38
2018-12-18T11:37:18.787Z,52.27
2018-12-18T11:39:48.515Z,52.15
2018-12-18T11:42:17.714Z,52.59
2018-12-18T11:44:48.073Z,54.11
2018-12-18T11:47:17.264Z,53.74
2018-12-18T11:49:48.152Z,54.12
2018-12-18T11:52:17.888Z,54.21
2018-12-18T11:54:47.078Z,55.18
2018-12-18T11:57:16.327Z,54.85
2018-12-18T11:59:45.692Z,54.65
2018-12-18T12:02:14.978Z,53.64
2018-12-18T12:04:44.589Z,53.14
2018-12-18T12:07:15.171Z,53.15
2018-12-18T12:09:44.346Z,53.54
2018-12-18T12:12:13.602Z,53.25
2018-12-18T12:14:43.657Z,54.42
2018-12-18T12:17:14.039Z,54.20
2018-12-18T12:19:43.547Z,54.16
2018-12-18T12:22:13.643Z,55.03
2018-12-18T12:24:42.842Z,53.94
2018-12-18T12:28:20.228Z,53.77
2018-12-18T12:30:49.814Z,52.31
2018-12-18T12:33:19.906Z,50.92
2018-12-18T12:35:49.204Z,51.10
2018-12-18T12:38:18.374Z,51.79
2018-12-18T12:40:47.673Z,51.68
2018-12-18T12:43:17.983Z,51.68
2018-12-18T12:45:47.160Z,52.52
2018-12-18T12:48:18.450Z,53.61
2018-12-18T12:50:47.732Z,54.87
2018-12-18T12:53:17.083Z,54.01
2018-12-18T12:55:46.831Z,55.82
2018-12-18T12:58:16.003Z,54.73
2018-12-18T13:00:46.208Z,53.76
2018-12-18T13:03:15.492Z,54.34
2018-12-18T13:05:45.386Z,54.48
2018-12-18T13:08:15.043Z,54.71
2018-12-18T13:10:44.244Z,55.36
2018-12-18T13:13:13.438Z,55.50
2018-12-18T13:15:42.607Z,54.50
2018-12-18T13:18:11.810Z,54.20
2018-12-18T13:20:41.680Z,53.06
2018-12-18T13:23:11.619Z,53.72
2018-12-18T13:25:41.690Z,54.34
2018-12-18T13:28:11.097Z,55.08
2018-12-18T13:30:43.745Z,54.21
2018-12-18T13:33:13.627Z,52.36
2018-12-18T13:37:13.477Z,53.45
2018-12-18T13:39:46.474Z,54.75
2018-12-18T13:42:15.762Z,53.58
2018-12-18T13:44:45.835Z,53.82
2018-12-18T13:47:15.359Z,52.87
2018-12-18T13:49:44.656Z,54.18
2018-12-18T13:52:15.387Z,55.55
2018-12-18T13:54:45.031Z,56.31
2018-12-18T13:57:14.686Z,55.58
2018-12-18T13:59:43.885Z,54.93
2018-12-18T14:02:14.292Z,55.27
2018-12-18T14:04:43.487Z,54.98
2018-12-18T14:07:12.715Z,55.93
2018-12-18T14:09:42.532Z,55.10
2018-12-18T14:12:11.706Z,53.50
2018-12-18T14:14:40.950Z,53.19
2018-12-18T14:17:10.171Z,55.06
2018-12-18T14:19:39.389Z,55.29
2018-12-18T14:22:09.096Z,55.79
2018-12-18T14:24:38.287Z,55.56
2018-12-18T14:27:07.515Z,55.83
2018-12-18T14:29:36.696Z,55.43
2018-12-18T14:32:05.954Z,57.15
2018-12-18T14:34:35.707Z,56.21
2018-12-18T14:37:06.460Z,56.46
2018-12-18T14:39:35.639Z,57.17
2018-12-18T14:42:04.805Z,56.39
2018-12-18T14:44:33.978Z,55.11
2018-12-18T14:47:03.753Z,54.63
2018-12-18T14:49:33.030Z,54.52
2018-12-18T14:52:02.271Z,53.99
2018-12-18T14:54:32.220Z,53.96
2018-12-18T14:57:01.429Z,54.36
2018-12-18T15:01:00.475Z,55.72
2018-12-18T15:03:29.769Z,55.80
2018-12-18T15:05:59.026Z,55.72
2018-12-18T15:08:28.435Z,54.54
2018-12-18T15:10:57.569Z,54.38
2018-12-18T15:13:31.335Z,53.56
2018-12-18T15:16:00.490Z,54.93
2018-12-18T15:18:29.668Z,53.93
2018-12-18T15:20:58.860Z,54.55
2018-12-18T15:23:28.030Z,54.55
2018-12-18T15:25:57.638Z,54.88
2018-12-18T15:28:27.323Z,55.56
2018-12-18T15:30:56.937Z,55.75
2018-12-18T15:33:26.468Z,54.53
2018-12-18T15:35:56.228Z,54.94
2018-12-18T15:38:27.092Z,54.31
2018-12-18T15:41:03.793Z,54.12
2018-12-18T15:43:34.876Z,53.58
2018-12-18T15:46:08.425Z,53.47
2018-12-18T15:48:39.447Z,53.20
2018-12-18T15:51:10.608Z,54.60
2018-12-18T15:53:41.369Z,53.39
2018-12-18T15:56:10.698Z,53.94
2018-12-18T15:58:39.929Z,54.52
2018-12-18T16:01:10.026Z,55.34
2018-12-18T16:03:39.431Z,55.73
2018-12-18T16:06:09.386Z,56.10
2018-12-18T16:08:39.639Z,54.29
2018-12-18T16:11:09.553Z,54.40
2018-12-18T16:13:41.105Z,54.37
2018-12-18T16:16:12.475Z,55.89
2018-12-18T16:18:42.149Z,57.28
2018-12-18T16:21:15.132Z,57.53
2018-12-18T16:25:15.639Z,58.30
2018-12-18T16:27:44.983Z,57.89
2018-12-18T16:30:14.207Z,56.69
2018-12-18T16:32:43.719Z,57.49
2018-12-18T16:35:15.314Z,57.29
2018-12-18T16:37:45.204Z,59.12
2018-12-18T16:40:16.407Z,57.00
2018-12-18T16:42:45.562Z,56.26
2018-12-18T16:45:14.882Z,57.24
2018-12-18T16:47:44.123Z,56.16
2018-12-18T16:50:13.859Z,56.12
2018-12-18T16:52:43.143Z,54.90
2018-12-18T16:55:12.321Z,54.43
2018-12-18T16:57:41.625Z,54.54
2018-12-18T17:00:11.434Z,55.49
2018-12-18T17:02:41.227Z,55.32
2018-12-18T17:05:13.011Z,56.51
2018-12-18T17:07:43.571Z,56.13
2018-12-18T17:10:13.419Z,54.59
2018-12-18T17:12:48.214Z,54.24
2018-12-18T17:15:18.046Z,55.59
2018-12-18T17:17:47.301Z,57.98
2018-12-18T17:20:16.586Z,57.69
2018-12-18T17:22:46.384Z,56.92
2018-12-18T17:25:16.310Z,57.77
2018-12-18T17:28:48.805Z,57.16
2018-12-18T17:31:17.974Z,57.23
2018-12-18T17:33:47.674Z,57.82
2018-12-18T17:36:16.875Z,57.84
2018-12-18T17:38:46.078Z,57.88
2018-12-18T17:41:16.133Z,58.27
2018-12-18T17:43:45.735Z,58.08
2018-12-18T17:46:15.927Z,59.69
2018-12-18T17:48:45.115Z,59.68
2018-12-18T17:51:16.245Z,58.86
2018-12-18T17:53:46.140Z,58.97
2018-12-18T17:56:15.320Z,58.03
2018-12-18T17:58:45.122Z,58.57
2018-12-18T18:01:14.374Z,58.00
2018-12-18T18:03:43.544Z,59.34
2018-12-18T18:06:12.850Z,58.60
2018-12-18T18:08:43.179Z,60.60
2018-12-18T18:11:12.866Z,61.16
2018-12-18T18:13:42.154Z,60.99
2018-12-18T18:16:11.415Z,60.81
2018-12-18T18:18:40.586Z,60.50
2018-12-18T18:21:09.881Z,60.65
2018-12-18T18:23:39.591Z,61.13
2018-12-18T18:26:09.885Z,60.26
2018-12-18T18:28:39.091Z,60.90
2018-12-18T18:31:08.259Z,61.04
2018-12-18T18:33:37.840Z,61.79
2018-12-18T18:36:07.527Z,61.48
2018-12-18T18:38:37.339Z,61.10
2018-12-18T18:41:06.667Z,62.05
2018-12-18T18:43:36.750Z,61.85
2018-12-18T18:46:05.942Z,61.86
2018-12-18T18:48:35.671Z,61.37
2018-12-18T18:51:04.864Z,60.22
2018-12-18T18:53:34.063Z,61.19
2018-12-18T18:56:03.671Z,60.72
2018-12-18T18:58:33.856Z,61.16
2018-12-18T19:01:03.548Z,61.40
2018-12-18T19:03:32.704Z,62.56
2018-12-18T19:06:01.991Z,61.21
2018-12-18T19:08:31.137Z,61.37
2018-12-18T19:11:00.384Z,60.30
2018-12-18T19:13:30.032Z,60.31
2018-12-18T19:16:00.347Z,60.34
2018-12-18T19:18:29.542Z,59.54
2018-12-18T19:20:58.828Z,61.55
2018-12-18T19:23:28.030Z,60.88
2018-12-18T19:25:57.712Z,59.11
2018-12-18T19:28:27.051Z,58.69
2018-12-18T19:30:57.412Z,59.84
2018-12-18T19:33:26.640Z,59.78
2018-12-18T19:35:58.300Z,60.21
2018-12-18T19:38:28.810Z,59.84
2018-12-18T19:40:58.132Z,58.43
2018-12-18T19:43:27.456Z,57.54
2018-12-18T19:45:57.510Z,57.75
2018-12-18T19:48:27.907Z,58.86
2018-12-18T19:50:57.626Z,58.08
2018-12-18T19:53:26.967Z,58.78
2018-12-18T19:55:56.123Z,60.41
2018-12-18T19:58:25.401Z,59.63
2018-12-18T20:00:54.616Z,58.75
2018-12-18T20:03:24.230Z,58.19
2018-12-18T20:05:53.450Z,57.83
2018-12-18T20:08:23.445Z,57.56
2018-12-18T20:10:52.633Z,59.21
2018-12-18T20:13:21.926Z,58.43
2018-12-18T20:15:51.616Z,58.14
2018-12-18T20:18:20.938Z,58.31
2018-12-18T20:20:50.219Z,58.33
2018-12-18T20:23:19.436Z,57.46
2018-12-18T20:25:48.785Z,57.30
2018-12-18T20:28:19.752Z,57.60
2018-12-18T20:30:49.609Z,57.06
2018-12-18T20:33:18.794Z,57.00
2018-12-18T20:35:49.212Z,57.48
2018-12-18T20:38:18.375Z,56.04
2018-12-18T20:40:48.091Z,56.00
2018-12-18T20:43:18.898Z,55.86
2018-12-18T20:45:48.177Z,57.45
2018-12-18T20:48:17.403Z,57.62
2018-12-18T20:50:46.715Z,58.23
2018-12-18T20:53:16.351Z,58.74
2018-12-18T20:55:45.676Z,58.44
2018-12-18T20:58:15.230Z,58.53
2018-12-18T21:00:45.958Z,58.54
2018-12-18T21:03:15.304Z,59.58
2018-12-18T21:05:44.942Z,58.50
2018-12-18T21:08:14.275Z,58.04
2018-12-18T21:10:43.427Z,58.18
2018-12-18T21:13:17.942Z,60.07
2018-12-18T21:15:47.662Z,57.96
2018-12-18T21:18:16.864Z,58.37
2018-12-18T21:20:46.995Z,57.38
2018-12-18T21:23:16.188Z,58.52
2018-12-18T21:25:45.487Z,58.13
2018-12-18T21:28:16.037Z,58.16
2018-12-18T21:30:45.266Z,58.86
2018-12-18T21:33:14.485Z,58.66
2018-12-18T21:35:43.706Z,57.78
2018-12-18T21:38:12.935Z,58.44
2018-12-18T21:40:42.648Z,59.29
2018-12-18T21:43:11.920Z,58.96
2018-12-18T21:45:41.104Z,58.20
2018-12-18T21:48:10.266Z,58.03
2018-12-18T21:50:40.253Z,57.84
2018-12-18T21:53:09.931Z,58.64
2018-12-18T21:55:39.059Z,58.57
2018-12-18T21:58:08.315Z,58.16
2018-12-18T22:00:37.505Z,58.29
2018-12-18T22:03:06.713Z,56.76
2018-12-18T22:05:36.572Z,56.71
2018-12-18T22:08:07.223Z,57.22
2018-12-18T22:10:36.363Z,57.56
2018-12-18T22:13:06.507Z,58.54
2018-12-18T22:15:35.679Z,56.67
2018-12-18T22:18:05.420Z,56.51
2018-12-18T22:20:34.664Z,56.37
2018-12-18T22:23:03.816Z,57.55
2018-12-18T22:25:33.063Z,57.87
2018-12-18T22:28:02.278Z,56.85
2018-12-18T22:30:32.022Z,57.66
2018-12-18T22:33:01.214Z,57.33
2018-12-18T22:35:30.467Z,55.92
2018-12-18T22:37:59.666Z,56.26
2018-12-18T22:40:28.843Z,55.93
2018-12-18T22:42:58.576Z,55.09
2018-12-18T22:45:27.805Z,55.11
2018-12-18T22:47:57.075Z,54.77
2018-12-18T22:50:26.309Z,54.61
2018-12-18T22:52:56.676Z,55.90
2018-12-18T22:55:26.422Z,56.86
2018-12-18T22:57:55.620Z,55.46
2018-12-18T23:00:30.416Z,55.86
2018-12-18T23:03:01.795Z,57.03
2018-12-18T23:05:31.575Z,55.50
2018-12-18T23:08:01.095Z,55.54
2018-12-18T23:10:30.271Z,54.93
2018-12-18T23:12:59.521Z,54.61
2018-12-18T23:15:28.715Z,54.47
2018-12-18T23:17:59.351Z,53.81
2018-12-18T23:20:28.548Z,53.49
2018-12-18T23:22:57.688Z,52.94
2018-12-18T23:25:26.868Z,53.60
2018-12-18T23:27:56.195Z,54.05
2018-12-18T23:30:25.991Z,53.80
2018-12-18T23:32:55.267Z,54.32
2018-12-18T23:35:24.414Z,53.40
2018-12-18T23:37:53.638Z,54.48
2018-12-18T23:40:23.100Z,53.95
2018-12-18T23:42:53.083Z,53.72
2018-12-18T23:45:22.745Z,54.80
2018-12-18T23:47:52.064Z,53.86
2018-12-18T23:50:21.230Z,53.09
2018-12-18T23:52:50.382Z,54.67
2018-12-18T23:55:21.770Z,55.22
2018-12-18T23:57:50.942Z,56.24
